Time;durP1;ratioP1;P1;durP2;ratioP2;P2;SDS_P1;SDS_P2;PMS_P1;PMS_P2;Temp;Humidity;BMP_temperature;BMP_pressure;BME280_temperature;BME280_humidity;BME280_pressure;Samples;Min_cycle;Max_cycle;Signal;HPM_P1;HPM_P2
2021/10/17 00:02:29;;;;;;;15.20;6.82;;;;;;;8.63;66.20;100368.38;10381020;28;20053;-63
2021/10/17 00:07:31;;;;;;;13.85;6.50;;;;;;;8.66;66.05;100365.63;10383320;28;20046;-63
2021/10/17 00:12:33;;;;;;;12.98;5.95;;;;;;;8.48;66.27;100363.00;10382973;28;20164;-63
2021/10/17 00:17:36;;;;;;;16.70;7.18;;;;;;;8.51;66.48;100360.25;10382467;28;20494;-63
2021/10/17 00:22:38;;;;;;;13.25;6.28;;;;;;;8.53;66.30;100371.44;10384240;28;20057;-63
2021/10/17 00:27:41;;;;;;;12.40;5.72;;;;;;;8.51;66.56;100362.84;10382942;28;20103;-63
2021/10/17 00:32:43;;;;;;;14.02;6.78;;;;;;;8.45;66.16;100363.13;10382474;28;20127;-63
2021/10/17 00:37:45;;;;;;;15.20;6.97;;;;;;;8.48;66.50;100363.84;10382948;28;20510;-63
2021/10/17 00:42:48;;;;;;;18.73;6.75;;;;;;;8.52;66.35;100359.34;10382008;28;20073;-63
2021/10/17 00:47:49;;;;;;;15.77;7.60;;;;;;;8.57;66.26;100358.22;10381835;28;20046;-63
2021/10/17 00:52:51;;;;;;;11.82;6.75;;;;;;;8.51;66.56;100353.28;10382473;28;20041;-63
2021/10/17 00:57:53;;;;;;;17.40;6.93;;;;;;;8.51;66.47;100362.84;10389888;28;20052;-63
2021/10/17 01:02:55;;;;;;;21.77;9.85;;;;;;;8.44;66.16;100356.22;10389968;28;20059;-63
2021/10/17 01:07:57;;;;;;;14.82;7.22;;;;;;;8.35;66.80;100364.44;10389719;28;20054;-63
2021/10/17 01:12:58;;;;;;;14.02;7.63;;;;;;;8.43;66.50;100352.78;10389149;28;20132;-63
2021/10/17 01:18:00;;;;;;;18.75;7.55;;;;;;;8.52;66.67;100356.72;10388480;28;20060;-63
2021/10/17 01:23:02;;;;;;;13.77;7.40;;;;;;;8.57;66.48;100349.53;10389366;28;20049;-63
2021/10/17 01:28:04;;;;;;;16.10;7.93;;;;;;;8.57;66.41;100345.19;10388914;28;20055;-64
2021/10/17 01:33:06;;;;;;;18.50;8.77;;;;;;;8.58;66.28;100335.59;10388960;28;20053;-63
2021/10/17 01:38:10;;;;;;;15.00;7.38;;;;;;;8.44;66.49;100338.84;10387066;28;20049;-63
2021/10/17 01:43:12;;;;;;;15.93;7.88;;;;;;;8.53;66.54;100329.75;10386324;28;20172;-63
2021/10/17 01:48:13;;;;;;;15.43;6.75;;;;;;;8.60;66.36;100331.16;10386916;28;20433;-63
2021/10/17 01:53:16;;;;;;;13.65;6.88;;;;;;;8.65;65.99;100330.03;10387809;28;20053;-63
2021/10/17 01:58:17;;;;;;;15.48;7.10;;;;;;;8.67;66.02;100322.13;10387948;28;20050;-63
2021/10/17 02:03:20;;;;;;;14.18;6.90;;;;;;;8.47;66.11;100320.44;10390676;28;20142;-64
2021/10/17 02:08:21;;;;;;;16.23;7.75;;;;;;;8.41;66.23;100314.66;10392765;28;20459;-64
2021/10/17 02:13:24;;;;;;;13.52;6.78;;;;;;;8.45;66.31;100330.09;10393882;28;20505;-63
2021/10/17 02:18:25;;;;;;;18.70;7.07;;;;;;;8.55;66.28;100323.53;10394411;28;20060;-63
2021/10/17 02:23:27;;;;;;;16.95;8.07;;;;;;;8.61;66.24;100323.28;10392783;28;20045;-63
2021/10/17 02:28:30;;;;;;;17.83;8.80;;;;;;;8.66;66.08;100318.72;10394554;28;20076;-63
2021/10/17 02:33:32;;;;;;;20.30;7.97;;;;;;;8.68;65.86;100314.25;10394106;28;20053;-63
2021/10/17 02:38:34;;;;;;;22.13;9.40;;;;;;;8.69;65.96;100309.88;10394069;28;20525;-63
2021/10/17 02:43:35;;;;;;;21.05;9.02;;;;;;;8.61;65.94;100304.16;10392327;28;20073;-63
2021/10/17 02:48:37;;;;;;;15.20;7.85;;;;;;;8.36;66.64;100308.81;10393941;28;20088;-63
2021/10/17 02:53:39;;;;;;;13.82;6.55;;;;;;;8.40;66.73;100312.97;10393575;28;20049;-63
2021/10/17 02:58:40;;;;;;;21.55;8.27;;;;;;;8.49;66.38;100313.41;10393521;28;20517;-63
2021/10/17 03:03:42;;;;;;;13.75;6.72;;;;;;;8.56;66.28;100311.38;10390347;28;20049;-63
2021/10/17 03:08:44;;;;;;;15.52;7.00;;;;;;;8.59;66.16;100313.81;10388363;28;20143;-62
2021/10/17 03:13:46;;;;;;;15.70;7.10;;;;;;;8.60;66.19;100303.34;10384181;28;20057;-63
2021/10/17 03:18:48;;;;;;;13.80;6.72;;;;;;;8.61;66.10;100306.78;10385545;28;20067;-63
2021/10/17 03:23:49;;;;;;;12.18;6.07;;;;;;;8.63;66.04;100311.00;10385780;28;20053;-65
2021/10/17 03:28:51;;;;;;;12.68;6.07;;;;;;;8.69;66.04;100304.66;10384628;28;20240;-63
2021/10/17 03:33:53;;;;;;;19.70;7.97;;;;;;;8.57;65.95;100302.63;10385526;28;20053;-62
2021/10/17 03:38:54;;;;;;;17.95;7.75;;;;;;;8.48;66.20;100300.44;10385232;28;20305;-62
2021/10/17 03:43:56;;;;;;;13.88;7.30;;;;;;;8.30;66.66;100302.13;10384903;28;20045;-63
2021/10/17 03:48:58;;;;;;;18.58;7.63;;;;;;;8.34;66.69;100300.22;10385119;28;20072;-63
2021/10/17 03:54:00;;;;;;;14.18;6.85;;;;;;;8.41;66.54;100297.25;10385461;28;20054;-63
2021/10/17 03:59:02;;;;;;;14.57;6.57;;;;;;;8.41;66.69;100299.00;10385324;28;20045;-63
2021/10/17 04:04:03;;;;;;;15.80;7.57;;;;;;;8.49;66.47;100291.69;10384644;28;20144;-63
2021/10/17 04:09:05;;;;;;;14.57;7.35;;;;;;;8.53;66.30;100295.84;10383292;28;20468;-63
2021/10/17 04:14:07;;;;;;;15.23;6.68;;;;;;;8.54;66.19;100293.19;10384224;28;20046;-63
2021/10/17 04:19:09;;;;;;;15.65;6.82;;;;;;;8.53;66.11;100285.41;10384297;28;20057;-62
2021/10/17 04:24:10;;;;;;;14.23;6.90;;;;;;;8.56;66.19;100291.38;10384173;28;20067;-63
2021/10/17 04:29:12;;;;;;;16.10;7.30;;;;;;;8.55;66.15;100294.88;10387966;28;20060;-62
2021/10/17 04:34:14;;;;;;;15.50;7.22;;;;;;;8.51;66.41;100302.91;10390757;28;20524;-62
2021/10/17 04:39:16;;;;;;;13.82;6.68;;;;;;;8.54;66.38;100294.94;10388976;28;20053;-63
2021/10/17 04:44:17;;;;;;;14.98;7.20;;;;;;;8.55;66.14;100294.03;10390968;28;20049;-63
2021/10/17 04:49:25;;;;;;;12.27;6.50;;;;;;;8.57;66.26;100289.59;10391685;28;20132;-63
2021/10/17 04:54:26;;;;;;;19.52;7.47;;;;;;;8.54;66.34;100285.38;10391138;28;20054;-63
2021/10/17 04:59:28;;;;;;;15.05;7.30;;;;;;;8.42;66.43;100285.94;10391420;28;20060;-63
2021/10/17 05:04:30;;;;;;;15.68;7.20;;;;;;;8.45;66.43;100290.13;10391096;28;20139;-63
2021/10/17 05:09:31;;;;;;;15.07;7.35;;;;;;;8.46;66.54;100284.88;10389589;28;20061;-62
2021/10/17 05:14:33;;;;;;;17.05;7.40;;;;;;;8.52;66.36;100291.56;10388720;28;20057;-62
2021/10/17 05:19:35;;;;;;;17.88;7.70;;;;;;;8.53;66.38;100291.50;10390388;28;20111;-63
2021/10/17 05:24:36;;;;;;;18.00;8.50;;;;;;;8.50;66.16;100294.25;10390009;28;20540;-62
2021/10/17 05:29:38;;;;;;;17.02;8.00;;;;;;;8.37;66.42;100307.88;10390258;28;20050;-62
2021/10/17 05:34:39;;;;;;;18.42;8.13;;;;;;;8.40;66.40;100305.16;10385940;28;20056;-63
2021/10/17 05:39:41;;;;;;;18.15;8.60;;;;;;;8.23;66.82;100318.06;10388211;28;20063;-63
2021/10/17 05:44:43;;;;;;;15.63;7.40;;;;;;;8.17;66.96;100327.00;10388985;28;20109;-63
2021/10/17 05:49:45;;;;;;;14.82;8.07;;;;;;;8.21;66.93;100331.19;10389722;28;20046;-63
2021/10/17 05:54:47;;;;;;;20.15;9.18;;;;;;;8.11;67.17;100332.50;10388339;28;20054;-63
2021/10/17 05:59:49;;;;;;;15.73;7.78;;;;;;;8.22;67.17;100340.66;10388716;28;20057;-63
2021/10/17 06:04:50;;;;;;;17.33;8.35;;;;;;;8.31;66.87;100345.50;10388337;28;20045;-63
2021/10/17 06:09:52;;;;;;;15.07;8.05;;;;;;;8.37;66.55;100352.19;10387819;28;20477;-63
2021/10/17 06:14:54;;;;;;;18.25;8.73;;;;;;;8.44;66.49;100353.63;10388209;28;20061;-64
2021/10/17 06:19:55;;;;;;;18.00;8.73;;;;;;;8.43;66.62;100360.59;10387683;28;20056;-64
2021/10/17 06:24:57;;;;;;;17.48;9.32;;;;;;;8.48;66.55;100358.63;10387103;28;20049;-63
2021/10/17 06:29:59;;;;;;;16.60;8.35;;;;;;;8.39;66.69;100363.38;10387417;28;20551;-64
2021/10/17 06:35:01;;;;;;;15.52;8.18;;;;;;;8.49;66.63;100370.75;10385730;28;20049;-63
2021/10/17 06:40:03;;;;;;;16.95;8.10;;;;;;;8.60;66.43;100372.88;10388244;28;20152;-64
2021/10/17 06:45:05;;;;;;;13.98;7.18;;;;;;;8.61;66.51;100377.16;10386645;28;20057;-64
2021/10/17 06:50:07;;;;;;;15.77;7.25;;;;;;;8.70;66.31;100374.16;10386380;28;20140;-64
2021/10/17 06:55:09;;;;;;;17.70;7.80;;;;;;;8.63;66.36;100370.13;10387207;28;20312;-64
2021/10/17 07:00:11;;;;;;;17.08;8.30;;;;;;;8.65;66.28;100384.78;10387278;28;20053;-64
2021/10/17 07:05:13;;;;;;;16.75;7.97;;;;;;;8.67;66.19;100385.56;10387559;28;20156;-64
2021/10/17 07:10:15;;;;;;;14.48;7.75;;;;;;;8.62;66.38;100386.69;10386249;28;20137;-64
2021/10/17 07:15:16;;;;;;;15.30;8.20;;;;;;;8.73;66.08;100389.66;10386793;28;20049;-64
2021/10/17 07:20:18;;;;;;;17.75;8.65;;;;;;;8.79;65.79;100394.63;10386954;28;20071;-63
2021/10/17 07:25:20;;;;;;;14.88;7.22;;;;;;;8.87;65.83;100397.72;10386390;28;20077;-64
2021/10/17 07:30:21;;;;;;;17.52;8.05;;;;;;;9.02;65.35;100393.53;10386295;28;20092;-64
2021/10/17 07:35:23;;;;;;;13.68;8.15;;;;;;;9.00;65.48;100398.84;10386587;28;20049;-64
2021/10/17 07:40:25;;;;;;;17.98;9.07;;;;;;;8.98;65.35;100395.47;10385582;28;20057;-63
2021/10/17 07:45:26;;;;;;;14.98;7.07;;;;;;;8.98;65.22;100405.03;10384709;28;20060;-63
2021/10/17 07:50:28;;;;;;;11.57;7.18;;;;;;;8.95;64.96;100400.84;10386074;28;20053;-63
2021/10/17 07:55:30;;;;;;;15.98;6.30;;;;;;;9.18;63.65;100399.78;10385777;28;20053;-64
2021/10/17 08:00:32;;;;;;;13.20;6.50;;;;;;;9.08;63.88;100396.72;10385390;28;20060;-63
2021/10/17 08:05:33;;;;;;;13.65;6.57;;;;;;;9.12;63.83;100392.19;10391859;28;20046;-64
2021/10/17 08:10:35;;;;;;;14.55;6.25;;;;;;;9.46;63.38;100410.59;10394031;28;20096;-64
2021/10/17 08:15:37;;;;;;;13.32;6.20;;;;;;;9.65;62.52;100411.41;10393939;28;20061;-64
2021/10/17 08:20:39;;;;;;;12.68;6.63;;;;;;;9.70;62.37;100414.69;10391905;28;20056;-64
2021/10/17 08:25:40;;;;;;;11.95;6.50;;;;;;;9.55;62.31;100415.38;10393574;28;20057;-63
2021/10/17 08:30:44;;;;;;;15.23;6.30;;;;;;;9.68;62.12;100402.59;10393164;28;20087;-64
2021/10/17 08:35:46;;;;;;;11.90;6.18;;;;;;;10.10;61.23;100406.56;10393039;28;20057;-63
2021/10/17 08:40:53;;;;;;;12.93;6.63;;;;;;;10.32;59.94;100414.16;10392943;28;20489;-64
2021/10/17 08:45:55;;;;;;;14.55;7.22;;;;;;;10.29;60.17;100407.34;10392933;28;20049;-64
2021/10/17 08:50:58;;;;;;;14.45;6.65;;;;;;;10.56;59.99;100399.00;10392256;28;20064;-63
2021/10/17 08:56:00;;;;;;;14.18;5.90;;;;;;;10.75;59.66;100395.31;10392472;28;20056;-64
2021/10/17 09:01:13;;;;;;;13.18;6.65;;;;;;;10.97;57.97;100402.88;10392873;28;20049;-64
2021/10/17 09:06:17;;;;;;;14.68;6.55;;;;;;;10.94;58.24;100385.56;10392046;28;20058;-64
2021/10/17 09:11:44;;;;;;;10.75;5.40;;;;;;;10.98;56.97;100386.22;10391942;28;20055;-64
2021/10/17 09:16:49;;;;;;;12.90;6.10;;;;;;;11.11;57.62;100393.34;10391377;28;20049;-63
2021/10/17 09:22:09;;;;;;;11.57;6.15;;;;;;;11.50;56.16;100399.97;10390485;28;20140;-64
2021/10/17 09:27:14;;;;;;;12.20;6.57;;;;;;;11.72;55.99;100405.69;10391167;28;20137;-64
2021/10/17 09:32:18;;;;;;;13.70;6.45;;;;;;;11.58;56.04;100398.56;10391883;28;20053;-64
2021/10/17 09:37:21;;;;;;;14.70;5.88;;;;;;;11.66;56.00;100400.78;10390600;28;20823;-64
2021/10/17 09:42:22;;;;;;;12.25;6.50;;;;;;;11.61;55.83;100397.56;10390932;28;20084;-64
2021/10/17 09:47:38;;;;;;;12.88;5.50;;;;;;;11.85;53.97;100397.03;10390824;28;20064;-63
2021/10/17 09:52:39;;;;;;;15.32;5.72;;;;;;;11.94;55.42;100396.50;10386060;28;20049;-64
2021/10/17 09:57:41;;;;;;;11.23;6.00;;;;;;;11.92;55.46;100394.91;10386038;28;20047;-64
2021/10/17 10:02:47;;;;;;;11.35;5.40;;;;;;;12.27;53.97;100395.44;10388215;28;20506;-64
2021/10/17 10:07:51;;;;;;;10.70;4.70;;;;;;;12.59;53.53;100395.25;10388131;28;20045;-64
2021/10/17 10:12:58;;;;;;;10.32;5.15;;;;;;;12.53;53.30;100390.38;10385216;28;20506;-63
2021/10/17 10:18:03;;;;;;;10.50;4.90;;;;;;;12.62;52.98;100389.78;10387834;28;20049;-64
2021/10/17 10:23:08;;;;;;;8.25;4.70;;;;;;;12.68;52.10;100384.16;10387110;28;20111;-64
2021/10/17 10:28:11;;;;;;;11.05;4.47;;;;;;;12.45;52.45;100381.28;10376750;28;20045;-63
2021/10/17 10:33:14;;;;;;;12.38;5.00;;;;;;;12.60;51.78;100385.59;10379008;28;20056;-64
2021/10/17 10:38:16;;;;;;;10.63;4.80;;;;;;;12.73;51.91;100381.28;10387073;28;20182;-64
2021/10/17 10:43:34;;;;;;;11.35;4.88;;;;;;;12.72;50.49;100380.41;10386961;28;20053;-64
2021/10/17 10:48:46;;;;;;;10.75;4.10;;;;;;;12.86;50.29;100375.16;10386754;28;20053;-64
2021/10/17 10:53:48;;;;;;;12.27;4.43;;;;;;;12.98;50.81;100372.72;10387352;28;20053;-64
2021/10/17 10:58:55;;;;;;;12.90;4.03;;;;;;;13.17;50.03;100373.28;10386234;28;20060;-64
2021/10/17 11:03:57;;;;;;;11.48;4.40;;;;;;;13.29;49.83;100368.03;10386637;28;20516;-64
2021/10/17 11:09:22;;;;;;;10.30;4.50;;;;;;;13.12;48.88;100362.19;10386026;28;20049;-64
2021/10/17 11:14:24;;;;;;;10.73;4.07;;;;;;;13.03;49.85;100357.53;10385647;28;20528;-64
2021/10/17 11:19:25;;;;;;;10.75;4.50;;;;;;;12.91;50.18;100354.72;10385264;28;20064;-64
2021/10/17 11:24:27;;;;;;;13.23;4.75;;;;;;;12.83;50.09;100357.00;10383573;28;20515;-64
2021/10/17 11:29:49;;;;;;;7.85;3.95;;;;;;;12.76;49.96;100354.84;10381494;28;20057;-64
2021/10/17 11:34:59;;;;;;;10.10;3.75;;;;;;;12.82;49.81;100344.78;10383715;28;20132;-64
2021/10/17 11:40:06;;;;;;;10.07;4.55;;;;;;;12.88;50.78;100343.59;10381847;28;20152;-63
2021/10/17 11:45:19;;;;;;;9.32;4.10;;;;;;;13.03;50.10;100341.78;10382512;28;20089;-64
2021/10/17 11:50:26;;;;;;;12.50;4.38;;;;;;;13.18;50.60;100340.78;10382791;28;20760;-63
2021/10/17 11:55:31;;;;;;;10.95;4.13;;;;;;;13.18;50.52;100336.38;10381966;28;20049;-64
2021/10/17 12:00:34;;;;;;;12.32;4.13;;;;;;;13.20;50.57;100324.00;10381958;28;20060;-65
2021/10/17 12:05:41;;;;;;;6.13;2.65;;;;;;;13.32;47.97;100330.25;10381133;28;20050;-64
2021/10/17 12:10:52;;;;;;;10.98;2.67;;;;;;;13.45;45.79;100316.25;10384326;28;20135;-64
2021/10/17 12:16:12;;;;;;;6.05;2.08;;;;;;;13.59;42.82;100315.34;10385848;28;20061;-64
2021/10/17 12:21:17;;;;;;;4.80;2.17;;;;;;;13.72;43.06;100310.94;10385726;28;20057;-64
2021/10/17 12:26:25;;;;;;;7.88;2.22;;;;;;;13.97;40.84;100313.63;10385853;28;20053;-64
2021/10/17 12:31:31;;;;;;;7.70;1.75;;;;;;;14.33;38.99;100311.09;10385473;28;20076;-64
2021/10/17 12:36:36;;;;;;;6.22;2.00;;;;;;;14.42;40.79;100307.84;10384835;28;20057;-64
2021/10/17 12:41:38;;;;;;;5.65;2.17;;;;;;;14.77;39.62;100307.19;10385439;28;20060;-64
2021/10/17 12:46:40;;;;;;;6.97;1.90;;;;;;;14.96;39.42;100295.22;10384956;28;20599;-64
2021/10/17 12:51:53;;;;;;;6.47;2.40;;;;;;;15.10;38.79;100294.25;10390606;28;20064;-64
2021/10/17 12:56:57;;;;;;;6.72;2.40;;;;;;;15.24;39.09;100286.16;10392970;28;20136;-64
2021/10/17 13:02:11;;;;;;;7.10;2.28;;;;;;;15.25;37.57;100287.84;10392144;28;20061;-72
2021/10/17 13:07:29;;;;;;;6.15;2.00;;;;;;;15.18;38.62;100282.19;10391837;28;20612;-72
2021/10/17 13:12:43;;;;;;;7.38;2.20;;;;;;;15.25;37.87;100277.28;10391041;28;20406;-72
2021/10/17 13:17:54;;;;;;;7.10;2.10;;;;;;;15.19;38.50;100272.47;10390815;28;20049;-71
2021/10/17 13:22:58;;;;;;;6.45;2.00;;;;;;;15.11;39.06;100270.41;10391178;28;20055;-72
2021/10/17 13:28:00;;;;;;;8.02;3.65;;;;;;;15.13;39.55;100270.28;10391507;28;20131;-72
2021/10/17 13:33:03;;;;;;;8.38;3.10;;;;;;;15.18;40.63;100263.75;10389956;28;20041;-72
2021/10/17 13:38:06;;;;;;;8.65;3.13;;;;;;;15.03;39.83;100262.22;10388926;28;20056;-72
2021/10/17 13:43:08;;;;;;;7.75;2.90;;;;;;;14.93;40.56;100260.38;10388527;28;20391;-71
2021/10/17 13:48:10;;;;;;;6.25;3.08;;;;;;;14.93;40.38;100261.22;10387335;28;20072;-71
2021/10/17 13:53:12;;;;;;;5.63;2.80;;;;;;;14.99;40.02;100252.88;10390010;28;20057;-71
2021/10/17 13:58:13;;;;;;;6.45;2.72;;;;;;;15.11;40.13;100251.97;10387640;28;20052;-72
2021/10/17 14:03:15;;;;;;;6.85;2.50;;;;;;;15.21;39.36;100245.06;10387780;28;20065;-71
2021/10/17 14:08:17;;;;;;;7.15;2.65;;;;;;;15.18;39.85;100255.00;10388404;28;20148;-72
2021/10/17 14:13:19;;;;;;;5.13;2.50;;;;;;;15.23;40.42;100244.94;10388381;28;20132;-72
2021/10/17 14:18:21;;;;;;;7.00;2.38;;;;;;;15.17;39.26;100243.63;10388936;28;20056;-72
2021/10/17 14:23:23;;;;;;;6.43;2.70;;;;;;;15.06;40.27;100248.00;10388724;28;20061;-72
2021/10/17 14:28:25;;;;;;;6.68;2.50;;;;;;;14.72;40.92;100248.72;10387756;28;20045;-71
2021/10/17 14:33:27;;;;;;;6.45;3.28;;;;;;;14.50;40.48;100257.31;10387081;28;20063;-71
2021/10/17 14:38:30;;;;;;;6.00;3.70;;;;;;;14.54;41.10;100251.75;10387742;28;20050;-71
2021/10/17 14:43:32;;;;;;;8.35;4.20;;;;;;;14.54;41.50;100253.53;10386296;28;20169;-70
2021/10/17 14:48:33;;;;;;;5.70;3.35;;;;;;;14.49;41.41;100264.38;10387495;28;20060;-70
2021/10/17 14:53:35;;;;;;;7.47;3.60;;;;;;;14.34;41.84;100268.06;10386547;28;20444;-71
2021/10/17 14:58:37;;;;;;;8.63;4.10;;;;;;;14.24;42.18;100268.81;10386304;28;20060;-71
2021/10/17 15:03:41;;;;;;;7.60;3.53;;;;;;;14.18;42.90;100263.97;10385500;28;20042;-71
2021/10/17 15:08:42;;;;;;;8.45;4.00;;;;;;;14.09;44.14;100267.22;10386603;28;20056;-71
2021/10/17 15:13:44;;;;;;;11.63;4.10;;;;;;;14.03;45.04;100267.66;10368133;28;20228;-71
2021/10/17 15:18:46;;;;;;;7.68;3.15;;;;;;;14.02;44.99;100269.47;10385723;28;20523;-71
2021/10/17 15:23:47;;;;;;;7.22;2.88;;;;;;;14.13;45.14;100266.06;10386303;28;20049;-71
2021/10/17 15:28:49;;;;;;;5.05;2.40;;;;;;;14.16;44.39;100274.63;10385351;28;20331;-72
2021/10/17 15:33:51;;;;;;;6.90;2.45;;;;;;;14.19;44.42;100271.75;10386164;28;20076;-70
2021/10/17 15:38:52;;;;;;;4.65;2.28;;;;;;;14.09;44.28;100267.22;10386153;28;20057;-71
2021/10/17 15:43:55;;;;;;;4.07;2.25;;;;;;;13.90;45.61;100270.28;10384777;28;20516;-71
2021/10/17 15:48:56;;;;;;;4.28;2.15;;;;;;;13.66;46.83;100272.78;10385122;28;20076;-71
2021/10/17 15:53:59;;;;;;;8.75;2.60;;;;;;;13.39;47.37;100281.63;10385296;28;20050;-72
2021/10/17 15:59:07;;;;;;;8.05;2.38;;;;;;;13.07;48.63;100285.50;10384503;28;20422;-72
2021/10/17 16:04:09;;;;;;;5.82;2.58;;;;;;;12.78;49.23;100282.94;10384033;28;20064;-72
2021/10/17 16:09:11;;;;;;;5.68;3.03;;;;;;;12.51;50.10;100289.94;10381667;28;20048;-71
2021/10/17 16:14:12;;;;;;;7.85;3.10;;;;;;;12.24;50.99;100296.81;10385033;28;20097;-71
2021/10/17 16:19:14;;;;;;;4.10;2.33;;;;;;;11.99;51.38;100309.72;10383430;28;20539;-71
2021/10/17 16:24:16;;;;;;;5.68;2.67;;;;;;;11.77;51.77;100304.06;10383902;28;20482;-71
2021/10/17 16:29:19;;;;;;;5.47;2.42;;;;;;;11.54;51.95;100312.41;10392362;28;20534;-60
2021/10/17 16:34:21;;;;;;;9.25;2.78;;;;;;;11.39;53.08;100315.91;10392574;28;20545;-64
2021/10/17 16:39:23;;;;;;;5.57;2.78;;;;;;;11.17;53.80;100314.50;10393046;28;20152;-64
2021/10/17 16:44:24;;;;;;;6.85;2.65;;;;;;;11.01;54.39;100323.28;10385366;28;20049;-64
2021/10/17 16:49:27;;;;;;;5.90;3.10;;;;;;;10.84;55.21;100332.03;10387105;28;20084;-64
2021/10/17 16:54:29;;;;;;;6.13;3.10;;;;;;;10.64;55.78;100337.50;10389659;28;20053;-64
2021/10/17 16:59:31;;;;;;;6.05;3.28;;;;;;;10.44;56.34;100337.69;10389625;28;20051;-64
2021/10/17 17:04:33;;;;;;;7.25;3.38;;;;;;;10.29;56.86;100343.75;10369590;28;20054;-64
2021/10/17 17:09:35;;;;;;;6.25;2.92;;;;;;;10.09;57.67;100347.41;10348002;28;20049;-64
2021/10/17 17:14:37;;;;;;;7.50;3.00;;;;;;;10.04;58.06;100343.31;10348990;28;20054;-65
2021/10/17 17:19:39;;;;;;;6.03;3.53;;;;;;;9.99;58.15;100361.81;10345510;28;20091;-64
2021/10/17 17:24:41;;;;;;;8.95;3.90;;;;;;;9.87;58.44;100359.81;10345986;28;20049;-64
2021/10/17 17:29:43;;;;;;;8.90;4.22;;;;;;;9.83;58.79;100370.53;10348776;28;20486;-64
2021/10/17 17:34:45;;;;;;;7.10;3.70;;;;;;;9.76;58.95;100383.03;10346790;28;20046;-64
2021/10/17 17:39:47;;;;;;;8.23;4.40;;;;;;;9.65;59.19;100385.28;10347654;28;20554;-64
2021/10/17 17:44:48;;;;;;;11.00;4.07;;;;;;;9.58;59.64;100389.94;10348095;28;20050;-64
2021/10/17 17:49:50;;;;;;;5.95;3.55;;;;;;;9.56;59.89;100386.56;10345513;28;20052;-64
2021/10/17 17:54:52;;;;;;;8.57;3.63;;;;;;;9.50;59.97;100393.88;10347570;28;20046;-64
2021/10/17 17:59:54;;;;;;;5.53;3.60;;;;;;;9.44;60.25;100395.00;10345504;28;20483;-63
2021/10/17 18:04:56;;;;;;;8.88;3.85;;;;;;;9.35;60.36;100391.97;10346876;28;20045;-63
2021/10/17 18:09:57;;;;;;;9.40;3.80;;;;;;;9.29;60.42;100400.09;10346754;28;20052;-62
2021/10/17 18:15:02;;;;;;;7.55;4.13;;;;;;;9.26;60.71;100410.72;10344923;28;20049;-63
2021/10/17 18:20:05;;;;;;;7.47;4.28;;;;;;;9.26;60.77;100416.75;10345411;28;20181;-63
2021/10/17 18:25:06;;;;;;;7.30;4.22;;;;;;;9.18;60.67;100418.88;10345644;28;20158;-62
2021/10/17 18:30:09;;;;;;;8.27;4.32;;;;;;;9.15;60.89;100424.25;10345975;28;20052;-62
2021/10/17 18:35:10;;;;;;;10.77;4.90;;;;;;;9.10;60.69;100431.41;10346540;28;21019;-63
2021/10/17 18:40:12;;;;;;;12.05;5.85;;;;;;;9.05;61.00;100432.56;10345507;28;20419;-62
2021/10/17 18:45:15;;;;;;;8.85;5.05;;;;;;;8.88;60.88;100448.09;10345825;28;20056;-62
2021/10/17 18:50:16;;;;;;;9.00;6.13;;;;;;;8.80;61.18;100441.50;10343281;28;20092;-63
2021/10/17 18:55:18;;;;;;;8.55;5.00;;;;;;;8.83;61.38;100445.72;10344063;28;20089;-62
2021/10/17 19:00:21;;;;;;;7.28;5.32;;;;;;;8.80;61.51;100449.31;10376959;28;20093;-63
2021/10/17 19:05:25;;;;;;;8.50;5.75;;;;;;;8.78;61.48;100450.28;10344788;28;20042;-63
2021/10/17 19:10:27;;;;;;;10.50;7.50;;;;;;;8.69;61.37;100453.28;10340798;28;20080;-63
2021/10/17 19:15:29;;;;;;;13.25;6.47;;;;;;;8.65;61.71;100454.34;10370852;28;20057;-62
2021/10/17 19:20:36;;;;;;;10.63;5.43;;;;;;;8.61;61.67;100461.44;10341692;28;20137;-63
2021/10/17 19:25:37;;;;;;;9.43;5.20;;;;;;;8.57;61.98;100466.84;10343998;28;20050;-62
2021/10/17 19:30:39;;;;;;;7.88;5.05;;;;;;;8.57;62.09;100469.47;10341318;28;20052;-62
2021/10/17 19:35:41;;;;;;;13.30;6.35;;;;;;;8.52;62.22;100474.03;10344826;28;20085;-62
2021/10/17 19:40:43;;;;;;;8.77;5.70;;;;;;;8.52;62.36;100474.03;10343168;28;20053;-63
2021/10/17 19:45:45;;;;;;;9.10;4.75;;;;;;;8.48;62.50;100478.53;10343986;28;20050;-63
2021/10/17 19:50:47;;;;;;;12.85;7.07;;;;;;;8.48;62.18;100485.50;10343508;28;20696;-63
2021/10/17 19:55:49;;;;;;;8.13;5.82;;;;;;;8.44;62.18;100491.75;10342932;28;20144;-62
2021/10/17 20:00:50;;;;;;;9.52;5.18;;;;;;;8.38;62.56;100481.59;10342620;28;20200;-62
2021/10/17 20:05:52;;;;;;;9.13;5.47;;;;;;;8.40;62.35;100485.84;10343272;28;20046;-63
2021/10/17 20:10:54;;;;;;;10.23;4.78;;;;;;;8.37;62.48;100498.13;10341474;28;20038;-63
2021/10/17 20:15:56;;;;;;;9.85;5.10;;;;;;;8.33;62.33;100493.97;10343666;28;20149;-62
2021/10/17 20:20:58;;;;;;;11.18;6.53;;;;;;;8.32;62.57;100500.09;10341664;28;20058;-62
2021/10/17 20:26:00;;;;;;;8.75;5.20;;;;;;;8.27;62.65;100509.84;10342394;28;20081;-62
2021/10/17 20:31:03;;;;;;;7.97;4.88;;;;;;;8.25;62.58;100512.53;10341485;28;20054;-63
2021/10/17 20:36:52;;;;;;;6.85;4.95;;;;;;;8.22;62.46;100501.38;10342336;28;20056;-63
2021/10/17 20:41:26;;;;;;;9.43;4.93;;;;;;;8.16;62.54;100510.28;10341905;28;20054;-63
2021/10/17 20:46:28;;;;;;;8.43;4.70;;;;;;;8.16;62.76;100514.66;10342474;28;20054;-62
2021/10/17 20:51:30;;;;;;;10.40;4.85;;;;;;;8.15;62.67;100505.16;10342826;28;20153;-63
2021/10/17 20:56:32;;;;;;;7.15;5.00;;;;;;;8.11;62.88;100520.06;10342666;28;20486;-63
2021/10/17 21:01:35;;;;;;;10.30;7.05;;;;;;;8.08;62.75;100532.34;10342058;28;20075;-63
2021/10/17 21:06:37;;;;;;;6.85;5.50;;;;;;;8.08;63.00;100542.75;10342181;28;20050;-62
2021/10/17 21:11:39;;;;;;;11.18;7.30;;;;;;;7.98;62.89;100540.50;10346378;28;20060;-62
2021/10/17 21:16:42;;;;;;;8.18;6.38;;;;;;;7.88;62.72;100544.38;10349319;28;20373;-63
2021/10/17 21:21:44;;;;;;;11.88;6.05;;;;;;;7.64;63.16;100553.13;10349191;28;20080;-63
2021/10/17 21:26:46;;;;;;;9.80;5.82;;;;;;;7.62;63.23;100552.34;10347976;28;20647;-63
2021/10/17 21:31:48;;;;;;;9.45;6.25;;;;;;;7.58;63.40;100544.69;10342160;28;20049;-63
2021/10/17 21:36:49;;;;;;;10.57;5.40;;;;;;;7.47;63.68;100550.31;10347276;28;20103;-63
2021/10/17 21:41:51;;;;;;;9.05;5.90;;;;;;;7.48;63.63;100552.00;10346412;28;20141;-63
2021/10/17 21:46:53;;;;;;;9.48;5.20;;;;;;;7.48;63.71;100553.75;10346037;28;20108;-62
2021/10/17 21:51:55;;;;;;;10.55;6.07;;;;;;;7.43;63.68;100553.94;10347676;28;20054;-63
2021/10/17 21:56:56;;;;;;;9.57;5.65;;;;;;;7.28;63.75;100544.09;10346487;28;20131;-63
2021/10/17 22:01:58;;;;;;;11.25;5.43;;;;;;;7.18;64.00;100551.38;10346807;28;20062;-62
2021/10/17 22:07:00;;;;;;;9.35;5.60;;;;;;;7.18;63.75;100555.75;10346889;28;20104;-62
2021/10/17 22:12:02;;;;;;;6.93;5.30;;;;;;;7.00;64.04;100561.56;10346182;28;20048;-62
2021/10/17 22:17:04;;;;;;;7.10;4.85;;;;;;;6.95;64.49;100564.34;10344573;28;20056;-62
2021/10/17 22:22:06;;;;;;;8.30;5.15;;;;;;;6.95;64.48;100564.34;10345326;28;20109;-63
2021/10/17 22:27:08;;;;;;;11.48;5.00;;;;;;;6.94;64.47;100569.59;10345770;28;20054;-62
2021/10/17 22:32:10;;;;;;;7.15;4.85;;;;;;;6.84;64.26;100583.81;10345763;28;20049;-62
2021/10/17 22:37:11;;;;;;;6.88;5.13;;;;;;;6.78;64.33;100576.22;10343975;28;20499;-62
2021/10/17 22:42:13;;;;;;;6.50;4.50;;;;;;;6.73;64.49;100583.34;10346680;28;20710;-62
2021/10/17 22:47:15;;;;;;;7.07;5.03;;;;;;;6.62;64.21;100575.91;10345862;28;20139;-62
2021/10/17 22:52:17;;;;;;;6.93;5.00;;;;;;;6.57;64.45;100582.16;10346405;28;20046;-62
2021/10/17 22:57:18;;;;;;;9.90;5.25;;;;;;;6.54;64.54;100582.25;10344967;28;20500;-62
2021/10/17 23:02:20;;;;;;;6.88;5.13;;;;;;;6.49;64.67;100584.16;10345619;28;20054;-62
2021/10/17 23:07:22;;;;;;;8.93;5.40;;;;;;;6.37;64.48;100577.59;10345015;28;20279;-62
2021/10/17 23:12:23;;;;;;;9.50;5.28;;;;;;;6.31;64.68;100576.03;10345166;28;20058;-63